Pittsburg, NH

5:42 PM EDT on September 22, 2014 (GMT -0400)
Berlin Municipal | Change Station
CLOSE
Current Station
Airport
Location: Berlin,
Elevation: 1158 ft
Nearby Weather Stations

Elev 1158 ft 44.58 °N, 71.18 °W | Updated 50 minutes ago

Overcast
Overcast
51 °F
Feels Like 51 °F
N
9
Wind Variable Wind from WNW
Gusts 20 mph

Today
High -- | Low -- °F
--% Chance of Precip.
Yesterday
High -- | Low -- °F
Precip. -- in
6:32 AM 6:42 PM
Waning Crescent, 2% visible
Pressure 29.86 in
Visibility 10.0 miles
Clouds Few 2600 ft
Few 3400 ft
Overcast 4400 ft
Dew Point 40 °F
Humidity 66%
Rainfall 0.14 in
Snow Depth Not available.
UV 0 out of 12
Pollen 1.20 out of 12
Air Quality Not available.
Flu Activity Not available.
METAR KBML 222052Z AUTO 29008G17KT 260V350 10SM FEW026 FEW034 OVC044 11/04 A2984 RMK AO2 SLP109 T01060044 51028

More Conditions Fewer Conditions

Pressure 29.86 in
Visibility 10.0 miles
Clouds Few 2600 ft
Few 3400 ft
Overcast 4400 ft
Dew Point 40 °F
Humidity 66%
Rainfall 0.14 in
Snow Depth Not available.
UV 0 out of 12
Pollen 1.20 out of 12
Air Quality Not available.
Flu Activity Not available.
METAR KBML 222052Z AUTO 29008G17KT 260V350 10SM FEW026 FEW034 OVC044 11/04 A2984 RMK AO2 SLP109 T01060044 51028

More Conditions Fewer Conditions

10-Day Weather Forecast

Almanac

Astronomy

Sep. 22, 2014 Rise Set
Actual Time 6:32 AM EDT 6:42 PM EDT
Civil Twilight 6:02 AM EDT 7:12 PM EDT
Nautical Twilight 5:28 AM EDT 7:46 PM EDT
Astronomical Twilight 4:53 AM EDT 8:21 PM EDT
Moon 4:55 AM EDT 5:50 PM EDT
Length of Visible Light 13h 09m
Length of Day
12h 10m
Tomorrow will be 3m 6s shorter.
Waning Crescent, 2% of the Moon is Illuminated
Today
Waning Crescent
Sep 24
New
Oct 1
First Quarter
Oct 8
Full
Oct 15
Last Quarter

Today's Extremes

State Highs State Lows

Community

WunderPhotos

Upload Photos

1,755,537 photos uploaded!

WunderBlogs® & News

Nearby

Air Quality

  Air Quality AQ Index Pollutant
Monday Good
PM2.5
Monday Good
OZONE
Tuesday Good
PM2.5
Tuesday Good
OZONE
Wednesday Good
PM2.5
Wednesday Good
OZONE

Snow Depth

Station Depth Elevation
No new snow has been reported.

Earthquake Activity

City Distance Mag. Time & Date
No recent earthquake activity has been reported nearby.
Minimum magnitude displayed is 2.5.

Coastal Water Temperatures

Place Temperature
No Stations Reporting

Nearby Weather Stations